createdAt,value
2024-04-25T00:02:13.137Z,99877.77
2024-04-25T00:04:42.917Z,99877.59
2024-04-25T00:07:12.543Z,99875.23
2024-04-25T00:09:42.205Z,99869.06
2024-04-25T00:12:11.826Z,99875.41
2024-04-25T00:14:41.429Z,99869.88
2024-04-25T00:17:11.056Z,99871.13
2024-04-25T00:19:40.714Z,99867.79
2024-04-25T00:22:10.321Z,99871.67
2024-04-25T00:24:39.969Z,99865.27
2024-04-25T00:27:11.318Z,99861.15
2024-04-25T00:29:41.690Z,99865.22
2024-04-25T00:32:11.326Z,99858.52
2024-04-25T00:34:40.970Z,99853.00
2024-04-25T00:37:10.692Z,99858.10
2024-04-25T00:39:40.460Z,99857.76
2024-04-25T00:42:17.570Z,99863.60
2024-04-25T00:44:47.155Z,99862.35
2024-04-25T00:47:17.394Z,99856.70
2024-04-25T00:49:47.002Z,99862.59
2024-04-25T00:52:19.350Z,99853.46
2024-04-25T00:54:48.916Z,99854.34
2024-04-25T00:57:18.620Z,99851.33
2024-04-25T00:59:49.236Z,99849.05
2024-04-25T01:02:18.939Z,99851.15
2024-04-25T01:04:48.559Z,99849.34
2024-04-25T01:07:18.208Z,99845.91
2024-04-25T01:09:47.766Z,99840.41
2024-04-25T01:12:18.759Z,99838.62
2024-04-25T01:14:48.336Z,99833.84
2024-04-25T01:17:17.943Z,99832.18
2024-04-25T01:19:47.542Z,99831.84
2024-04-25T01:22:17.119Z,99831.31
2024-04-25T01:24:46.805Z,99833.64
2024-04-25T01:27:16.384Z,99834.70
2024-04-25T01:29:45.983Z,99835.02
2024-04-25T01:32:15.612Z,99832.04
2024-04-25T01:34:45.237Z,99833.77
2024-04-25T01:37:14.804Z,99830.04
2024-04-25T01:39:44.375Z,99828.20
2024-04-25T01:42:13.963Z,99829.44
2024-04-25T01:44:43.586Z,99831.04
2024-04-25T01:47:13.350Z,99834.23
2024-04-25T01:49:43.102Z,99829.71
2024-04-25T01:52:12.678Z,99832.61
2024-04-25T01:54:42.238Z,99830.35
2024-04-25T01:57:11.827Z,99833.05
2024-04-25T01:59:41.398Z,99831.11
2024-04-25T02:02:10.990Z,99831.80
2024-04-25T02:04:40.588Z,99831.98
2024-04-25T02:07:11.886Z,99830.95
2024-04-25T02:09:41.928Z,99830.95
2024-04-25T02:12:11.814Z,99828.51
2024-04-25T02:14:41.439Z,99828.64
2024-04-25T02:17:11.052Z,99827.75
2024-04-25T02:19:40.628Z,99829.88
2024-04-25T02:22:27.960Z,99823.65
2024-04-25T02:25:15.962Z,99820.98
2024-04-25T02:27:46.108Z,99823.48
2024-04-25T02:30:15.839Z,99823.11
2024-04-25T02:32:45.479Z,99824.73
2024-04-25T02:35:15.243Z,99823.45
2024-04-25T02:37:44.827Z,99825.07
2024-04-25T02:40:14.744Z,99823.78
2024-04-25T02:42:44.374Z,99818.77
2024-04-25T02:45:13.947Z,99818.58
2024-04-25T02:47:43.645Z,99821.63
2024-04-25T02:50:13.398Z,99819.88
2024-04-25T02:52:43.300Z,99814.79
2024-04-25T02:55:12.876Z,99816.25
2024-04-25T02:57:42.468Z,99813.08
2024-04-25T03:00:14.099Z,99818.94
2024-04-25T03:02:44.243Z,99818.44
2024-04-25T03:05:13.883Z,99817.56
2024-04-25T03:07:43.490Z,99814.17
2024-04-25T03:10:13.104Z,99815.79
2024-04-25T03:12:42.690Z,99813.67
2024-04-25T03:15:12.318Z,99818.11
2024-04-25T03:17:42.117Z,99815.29
2024-04-25T03:20:13.785Z,99808.91
2024-04-25T03:22:43.411Z,99808.89
2024-04-25T03:25:12.988Z,99814.95
2024-04-25T03:27:42.675Z,99813.52
2024-04-25T03:30:13.212Z,99808.89
2024-04-25T03:32:43.032Z,99809.27
2024-04-25T03:35:13.571Z,99813.02
2024-04-25T03:37:43.568Z,99811.06
2024-04-25T03:40:13.993Z,99811.61
2024-04-25T03:42:43.628Z,99809.12
2024-04-25T03:45:13.204Z,99806.80
2024-04-25T03:47:42.921Z,99811.08
2024-04-25T03:50:12.615Z,99815.89
2024-04-25T03:52:42.431Z,99814.09
2024-04-25T03:55:12.132Z,99818.35
2024-04-25T03:57:41.753Z,99815.33
2024-04-25T04:00:12.056Z,99813.17
2024-04-25T04:02:41.652Z,99814.46
2024-04-25T04:05:12.808Z,99815.70
2024-04-25T04:07:43.896Z,99813.25
2024-04-25T04:10:13.567Z,99814.81
2024-04-25T04:12:43.760Z,99815.95
2024-04-25T04:15:14.198Z,99813.63
2024-04-25T04:17:45.558Z,99810.57
2024-04-25T04:20:15.499Z,99811.48
2024-04-25T04:22:45.195Z,99812.77
2024-04-25T04:25:14.869Z,99810.04
2024-04-25T04:27:44.445Z,99810.39
2024-04-25T04:30:14.233Z,99813.25
2024-04-25T04:32:43.895Z,99817.33
2024-04-25T04:35:13.576Z,99817.88
2024-04-25T04:37:43.239Z,99816.65
2024-04-25T04:40:13.700Z,99818.94
2024-04-25T04:42:43.271Z,99821.05
2024-04-25T04:45:12.912Z,99820.04
2024-04-25T04:47:42.624Z,99819.98
2024-04-25T04:50:12.306Z,99821.23
2024-04-25T04:52:41.926Z,99826.37
2024-04-25T04:55:11.747Z,99828.88
2024-04-25T04:57:41.351Z,99824.06
2024-04-25T05:00:12.517Z,99824.92
2024-04-25T05:02:42.253Z,99827.09
2024-04-25T05:05:12.242Z,99829.70
2024-04-25T05:07:41.813Z,99830.41
2024-04-25T05:10:11.445Z,99827.91
2024-04-25T05:12:41.086Z,99829.36
2024-04-25T05:15:10.724Z,99824.02
2024-04-25T05:17:41.536Z,99828.31
2024-04-25T05:20:12.655Z,99823.40
2024-04-25T05:22:42.210Z,99829.55
2024-04-25T05:25:11.782Z,99831.91
2024-04-25T05:27:41.389Z,99829.04
2024-04-25T05:30:12.086Z,99833.67
2024-04-25T05:32:41.772Z,99834.04
2024-04-25T05:35:11.462Z,99834.59
2024-04-25T05:37:41.065Z,99835.46
2024-04-25T05:40:11.917Z,99832.27
2024-04-25T05:42:41.526Z,99833.50
2024-04-25T05:45:11.377Z,99834.77
2024-04-25T05:47:41.463Z,99836.68
2024-04-25T05:50:11.475Z,99829.77
2024-04-25T05:52:41.061Z,99820.48
2024-04-25T05:55:10.607Z,99813.92
2024-04-25T05:57:40.232Z,99814.26
2024-04-25T06:00:11.355Z,99814.64
2024-04-25T06:02:41.079Z,99816.75
2024-04-25T06:05:12.119Z,99817.30
2024-04-25T06:07:41.707Z,99814.45
2024-04-25T06:10:11.386Z,99826.91
2024-04-25T06:12:41.126Z,99831.16
2024-04-25T06:15:11.054Z,99822.84
2024-04-25T06:17:42.516Z,99816.69
2024-04-25T06:20:13.261Z,99820.45
2024-04-25T06:22:42.873Z,99820.88
2024-04-25T06:25:12.460Z,99821.72
2024-04-25T06:27:43.088Z,99822.63
2024-04-25T06:30:13.237Z,99823.51
2024-04-25T06:32:43.043Z,99825.61
2024-04-25T06:35:12.870Z,99828.04
2024-04-25T06:37:42.443Z,99825.19
2024-04-25T06:40:12.665Z,99826.42
2024-04-25T06:42:42.273Z,99825.52
2024-04-25T06:45:11.870Z,99826.73
2024-04-25T06:47:42.418Z,99826.05
2024-04-25T06:50:12.240Z,99827.98
2024-04-25T06:52:42.664Z,99830.13
2024-04-25T06:55:13.126Z,99832.39
2024-04-25T06:57:42.798Z,99834.53
2024-04-25T07:00:15.116Z,99835.96
2024-04-25T07:02:44.807Z,99837.02
2024-04-25T07:05:14.499Z,99837.71
2024-04-25T07:07:44.136Z,99839.30
2024-04-25T07:10:13.939Z,99838.75
2024-04-25T07:12:43.693Z,99840.35
2024-04-25T07:15:13.292Z,99838.70
2024-04-25T07:17:42.923Z,99842.63
2024-04-25T07:20:13.218Z,99842.61
2024-04-25T07:22:42.821Z,99843.34
2024-04-25T07:25:14.902Z,99843.69
2024-04-25T07:27:44.484Z,99846.01
2024-04-25T07:30:14.570Z,99844.94
2024-04-25T07:32:44.955Z,99845.61
2024-04-25T07:35:15.342Z,99844.56
2024-04-25T07:37:45.121Z,99845.13
2024-04-25T07:40:14.824Z,99847.21
2024-04-25T07:42:44.494Z,99845.73
2024-04-25T07:45:14.136Z,99843.09
2024-04-25T07:47:44.277Z,99845.91
2024-04-25T07:50:14.091Z,99855.16
2024-04-25T07:52:43.686Z,99853.01
2024-04-25T07:55:13.374Z,99846.65
2024-04-25T07:57:42.968Z,99849.20
2024-04-25T08:00:14.015Z,99850.63
2024-04-25T08:02:44.781Z,99857.58
2024-04-25T08:05:16.269Z,99857.92
2024-04-25T08:07:48.277Z,99857.41
2024-04-25T08:10:17.997Z,99859.01
2024-04-25T08:12:47.551Z,99854.04
2024-04-25T08:15:17.419Z,99854.90
2024-04-25T08:17:49.432Z,99853.85
2024-04-25T08:20:19.923Z,99857.88
2024-04-25T08:22:49.578Z,99859.52
2024-04-25T08:25:19.174Z,99857.33
2024-04-25T08:27:48.781Z,99856.95
2024-04-25T08:30:18.638Z,99860.84
2024-04-25T08:32:48.727Z,99860.13
2024-04-25T08:35:18.481Z,99861.69
2024-04-25T08:37:48.153Z,99862.92
2024-04-25T08:40:18.117Z,99861.29
2024-04-25T08:42:51.212Z,99858.94
2024-04-25T08:45:19.756Z,99856.29
2024-04-25T08:47:49.791Z,99861.48
2024-04-25T08:50:20.039Z,99865.89
2024-04-25T08:52:50.260Z,99865.33
2024-04-25T08:55:20.100Z,99865.16
2024-04-25T08:57:49.819Z,99859.77
2024-04-25T09:00:20.187Z,99860.61
2024-04-25T09:02:50.656Z,99858.08
2024-04-25T09:05:21.159Z,99863.91
2024-04-25T09:07:50.775Z,99857.12
2024-04-25T09:10:21.570Z,99854.44
2024-04-25T09:12:51.143Z,99851.75
2024-04-25T09:15:21.296Z,99852.81
2024-04-25T09:17:59.550Z,99849.99
2024-04-25T09:20:29.658Z,99850.58
2024-04-25T09:23:00.875Z,99847.77
2024-04-25T09:25:33.052Z,99849.17
2024-04-25T09:28:03.469Z,99844.75
2024-04-25T09:30:33.452Z,99843.00
2024-04-25T09:33:06.614Z,99845.28
2024-04-25T09:35:44.138Z,99845.34
2024-04-25T09:38:13.757Z,99845.84
2024-04-25T09:40:45.244Z,99843.05
2024-04-25T09:43:16.028Z,99845.17
2024-04-25T09:45:45.776Z,99842.54
2024-04-25T09:48:17.486Z,99846.11
2024-04-25T09:50:49.023Z,99841.15
2024-04-25T09:53:20.823Z,99841.90
2024-04-25T09:55:50.434Z,99842.83
2024-04-25T09:58:25.613Z,99841.23
2024-04-25T10:00:55.300Z,99843.91
2024-04-25T10:03:24.880Z,99842.27
2024-04-25T10:05:54.804Z,99840.53
2024-04-25T10:08:24.388Z,99843.00
2024-04-25T10:10:54.021Z,99843.14
2024-04-25T10:13:27.545Z,99840.98
2024-04-25T10:16:01.708Z,99844.67
2024-04-25T10:18:31.467Z,99843.09
2024-04-25T10:21:02.511Z,99848.17
2024-04-25T10:23:35.496Z,99846.50
2024-04-25T10:26:05.494Z,99846.45
2024-04-25T10:28:35.108Z,99850.13
2024-04-25T10:31:05.139Z,99851.31
2024-04-25T10:33:34.807Z,99848.78
2024-04-25T10:36:08.788Z,99853.70
2024-04-25T10:38:41.650Z,99849.93
2024-04-25T10:41:16.015Z,99848.83
2024-04-25T10:43:48.461Z,99851.75
2024-04-25T10:46:18.015Z,99844.23
2024-04-25T10:48:47.658Z,99840.98
2024-04-25T10:51:17.310Z,99839.88
2024-04-25T10:53:47.041Z,99838.37
2024-04-25T10:56:16.693Z,99841.12
2024-04-25T10:58:52.901Z,99841.95
2024-04-25T11:01:26.213Z,99843.14
2024-04-25T11:03:58.087Z,99840.63
2024-04-25T11:06:28.408Z,99839.55
2024-04-25T11:08:57.981Z,99843.91
2024-04-25T11:11:27.714Z,99840.80
2024-04-25T11:13:57.397Z,99840.14
2024-04-25T11:16:37.522Z,99843.36
2024-04-25T11:19:13.874Z,99845.63
2024-04-25T11:21:47.101Z,99846.48
2024-04-25T11:24:17.342Z,99855.98
2024-04-25T11:26:47.458Z,99858.75
2024-04-25T11:29:17.400Z,99862.34
2024-04-25T11:31:46.995Z,99862.76
2024-04-25T11:34:21.692Z,99869.49
2024-04-25T11:37:01.246Z,99870.02
2024-04-25T11:39:31.219Z,99870.16
2024-04-25T11:42:01.380Z,99867.34
2024-04-25T11:44:32.470Z,99870.20
2024-04-25T11:47:02.669Z,99871.41
2024-04-25T11:49:33.654Z,99871.36
2024-04-25T11:52:03.309Z,99874.94
2024-04-25T11:54:32.968Z,99866.90
2024-04-25T11:57:02.752Z,99863.85
2024-04-25T11:59:33.119Z,99862.95
2024-04-25T12:02:02.992Z,99857.91
2024-04-25T12:04:32.682Z,99858.22
2024-04-25T12:07:02.324Z,99861.27
2024-04-25T12:09:32.163Z,99862.15
2024-04-25T12:12:01.880Z,99861.75
2024-04-25T12:14:31.545Z,99859.80
2024-04-25T12:17:01.756Z,99859.23
2024-04-25T12:19:33.002Z,99860.64
2024-04-25T12:22:02.675Z,99855.85
2024-04-25T12:24:32.245Z,99850.15
2024-04-25T12:27:01.845Z,99847.09
2024-04-25T12:29:31.513Z,99846.71
2024-04-25T12:32:03.785Z,99846.71
2024-04-25T12:34:33.431Z,99841.41
2024-04-25T12:37:03.128Z,99837.30
2024-04-25T12:39:34.338Z,99846.17
2024-04-25T12:42:04.029Z,99845.81
2024-04-25T12:44:33.629Z,99844.25
2024-04-25T12:47:03.314Z,99844.58
2024-04-25T12:49:33.707Z,99843.91
2024-04-25T12:52:03.339Z,99842.98
2024-04-25T12:54:32.919Z,99843.68
2024-04-25T12:57:02.636Z,99839.77
2024-04-25T12:59:32.423Z,99835.17
2024-04-25T13:02:01.999Z,99834.84
2024-04-25T13:04:31.667Z,99840.50
2024-04-25T13:07:03.433Z,99835.16
2024-04-25T13:09:33.013Z,99839.26
2024-04-25T13:12:02.633Z,99849.60
2024-04-25T13:14:32.295Z,99851.73
2024-04-25T13:17:01.924Z,99847.80
2024-04-25T13:19:31.539Z,99849.58
2024-04-25T13:22:02.340Z,99849.95
2024-04-25T13:24:32.229Z,99854.09
2024-04-25T13:27:03.519Z,99855.40
2024-04-25T13:29:33.341Z,99859.27
2024-04-25T13:32:02.986Z,99857.69
2024-04-25T13:34:32.597Z,99861.58
2024-04-25T13:37:02.176Z,99861.92
2024-04-25T13:39:31.757Z,99861.75
2024-04-25T13:42:01.373Z,99859.42
2024-04-25T13:44:31.039Z,99862.99
2024-04-25T13:47:00.679Z,99865.15
2024-04-25T13:49:30.288Z,99866.00
2024-04-25T13:51:59.891Z,99867.41
2024-04-25T13:54:30.077Z,99864.08
2024-04-25T13:56:59.667Z,99858.31
2024-04-25T13:59:29.334Z,99864.39
2024-04-25T14:01:59.025Z,99858.14
2024-04-25T14:04:28.646Z,99861.22
2024-04-25T14:06:58.272Z,99865.28
2024-04-25T14:09:27.930Z,99869.79
2024-04-25T14:11:57.619Z,99872.42
2024-04-25T14:14:28.241Z,99876.16
2024-04-25T14:16:57.969Z,99873.17
2024-04-25T14:19:27.598Z,99878.42
2024-04-25T14:21:57.243Z,99876.70
2024-04-25T14:24:28.011Z,99874.23
2024-04-25T14:27:15.433Z,99871.02
2024-04-25T14:29:45.238Z,99871.02
2024-04-25T14:32:14.998Z,99877.77
2024-04-25T14:34:44.622Z,99875.80
2024-04-25T14:37:17.553Z,99878.16
2024-04-25T14:39:47.200Z,99880.96
2024-04-25T14:42:17.910Z,99876.17
2024-04-25T14:44:48.354Z,99881.34
2024-04-25T14:47:18.245Z,99881.53
2024-04-25T14:49:47.873Z,99881.89
2024-04-25T14:52:17.496Z,99881.55
2024-04-25T14:54:47.188Z,99873.97
2024-04-25T14:57:16.893Z,99874.69
2024-04-25T14:59:49.897Z,99871.50
2024-04-25T15:02:19.630Z,99868.15
2024-04-25T15:04:49.597Z,99873.77
2024-04-25T15:07:19.258Z,99872.89
2024-04-25T15:09:50.009Z,99866.01
2024-04-25T15:12:19.590Z,99867.06
2024-04-25T15:14:51.318Z,99867.40
2024-04-25T15:17:22.246Z,99865.64
2024-04-25T15:19:52.431Z,99868.27
2024-04-25T15:22:22.126Z,99865.64
2024-04-25T15:24:51.690Z,99861.92
2024-04-25T15:27:22.055Z,99861.56
2024-04-25T15:29:51.728Z,99863.12
2024-04-25T15:32:21.340Z,99867.93
2024-04-25T15:34:50.927Z,99865.41
2024-04-25T15:37:21.673Z,99869.52
2024-04-25T15:39:52.377Z,99868.10
2024-04-25T15:42:21.984Z,99866.29
2024-04-25T15:44:51.723Z,99870.04
2024-04-25T15:47:21.559Z,99875.53
2024-04-25T15:49:51.434Z,99877.89
2024-04-25T15:52:21.011Z,99878.41
2024-04-25T15:54:50.635Z,99879.13
2024-04-25T15:57:20.223Z,99882.70
2024-04-25T15:59:51.114Z,99885.75
2024-04-25T16:02:20.930Z,99885.22
2024-04-25T16:04:52.129Z,99885.79
2024-04-25T16:07:22.045Z,99887.75
2024-04-25T16:09:51.661Z,99890.44
2024-04-25T16:12:21.395Z,99892.08
2024-04-25T16:14:53.378Z,99886.26
2024-04-25T16:17:23.027Z,99888.89
2024-04-25T16:19:52.738Z,99887.31
2024-04-25T16:22:22.347Z,99885.00
2024-04-25T16:24:51.909Z,99883.98
2024-04-25T16:27:22.723Z,99885.19
2024-04-25T16:29:52.364Z,99890.04
2024-04-25T16:32:22.050Z,99886.55
2024-04-25T16:34:52.047Z,99895.28
2024-04-25T16:37:21.668Z,99898.73
2024-04-25T16:39:51.325Z,99900.55
2024-04-25T16:42:20.925Z,99899.15
2024-04-25T16:44:52.595Z,99897.05
2024-04-25T16:47:22.317Z,99898.99
2024-04-25T16:49:51.961Z,99901.91
2024-04-25T16:52:21.611Z,99901.04
2024-04-25T16:54:51.243Z,99906.77
2024-04-25T16:57:20.824Z,99902.86
2024-04-25T16:59:50.772Z,99905.41
2024-04-25T17:02:20.645Z,99908.80
2024-04-25T17:04:50.905Z,99908.97
2024-04-25T17:07:20.487Z,99908.10
2024-04-25T17:09:50.466Z,99909.86
2024-04-25T17:12:20.076Z,99906.88
2024-04-25T17:14:50.013Z,99912.88
2024-04-25T17:17:19.690Z,99915.95
2024-04-25T17:19:49.329Z,99919.48
2024-04-25T17:22:18.889Z,99920.40
2024-04-25T17:24:48.625Z,99925.60
2024-04-25T17:27:18.188Z,99926.14
2024-04-25T17:29:47.810Z,99928.79
2024-04-25T17:32:17.600Z,99930.05
2024-04-25T17:34:49.430Z,99938.27
2024-04-25T17:37:19.096Z,99949.08
2024-04-25T17:39:48.681Z,99943.45
2024-04-25T17:42:18.275Z,99949.92
2024-04-25T17:44:49.346Z,99951.19
2024-04-25T17:47:20.039Z,99959.56
2024-04-25T17:49:49.654Z,99956.92
2024-04-25T17:52:19.249Z,99963.36
2024-04-25T17:54:48.829Z,99964.94
2024-04-25T17:57:20.578Z,99970.64
2024-04-25T17:59:50.227Z,99971.55
2024-04-25T18:02:20.110Z,99976.75
2024-04-25T18:04:49.823Z,99981.00
2024-04-25T18:07:21.377Z,99984.73
2024-04-25T18:09:51.130Z,99988.81
2024-04-25T18:12:20.766Z,99991.32
2024-04-25T18:14:50.489Z,99994.42
2024-04-25T18:17:20.117Z,99995.98
2024-04-25T18:19:49.745Z,99994.09
2024-04-25T18:22:24.180Z,99997.55
2024-04-25T18:24:53.878Z,100001.72
2024-04-25T18:27:24.407Z,100009.80
2024-04-25T18:29:53.997Z,100009.27
2024-04-25T18:32:23.637Z,100012.67
2024-04-25T18:34:53.238Z,100017.26
2024-04-25T18:37:22.827Z,100021.40
2024-04-25T18:39:52.377Z,100022.15
2024-04-25T18:42:23.514Z,100027.31
2024-04-25T18:44:53.729Z,100034.81
2024-04-25T18:47:23.501Z,100032.77
2024-04-25T18:49:53.108Z,100024.90
2024-04-25T18:52:22.707Z,100023.34
2024-04-25T18:54:52.308Z,100029.75
2024-04-25T18:57:21.991Z,100025.80
2024-04-25T18:59:51.774Z,100029.61
2024-04-25T19:02:21.606Z,100033.89
2024-04-25T19:04:52.002Z,100032.17
2024-04-25T19:07:22.312Z,100033.16
2024-04-25T19:09:53.163Z,100037.58
2024-04-25T19:12:22.907Z,100030.55
2024-04-25T19:14:52.949Z,100031.70
2024-04-25T19:17:23.204Z,100033.81
2024-04-25T19:19:52.876Z,100035.08
2024-04-25T19:22:24.362Z,100037.67
2024-04-25T19:24:54.033Z,100034.83
2024-04-25T19:27:25.607Z,100034.25
2024-04-25T19:29:55.856Z,100039.79
2024-04-25T19:32:26.221Z,100041.33
2024-04-25T19:34:56.135Z,100043.34
2024-04-25T19:37:25.861Z,100048.27
2024-04-25T19:39:57.943Z,100047.84
2024-04-25T19:42:29.337Z,100047.73
2024-04-25T19:44:59.030Z,100046.77
2024-04-25T19:47:29.774Z,100050.20
2024-04-25T19:50:00.453Z,100047.80
2024-04-25T19:52:30.406Z,100054.30
2024-04-25T19:55:00.007Z,100057.73
2024-04-25T19:57:29.608Z,100061.55
2024-04-25T20:00:01.128Z,100061.97
2024-04-25T20:02:31.178Z,100064.33
2024-04-25T20:05:00.920Z,100063.86
2024-04-25T20:07:31.588Z,100068.16
2024-04-25T20:10:01.935Z,100068.05
2024-04-25T20:12:31.526Z,100071.30
2024-04-25T20:15:03.236Z,100071.34
2024-04-25T20:17:51.279Z,100073.15
2024-04-25T20:20:38.695Z,100081.56
2024-04-25T20:23:08.368Z,100087.70
2024-04-25T20:25:37.938Z,100104.46
2024-04-25T20:28:08.072Z,100090.98
2024-04-25T20:30:37.687Z,100088.63
2024-04-25T20:33:07.995Z,100089.76
2024-04-25T20:35:37.659Z,100095.00
2024-04-25T20:38:07.354Z,100089.73
2024-04-25T20:40:36.909Z,100088.02
2024-04-25T20:43:06.857Z,100089.31
2024-04-25T20:45:36.453Z,100093.29
2024-04-25T20:48:07.550Z,100095.29
2024-04-25T20:50:37.260Z,100099.62
2024-04-25T20:53:07.055Z,100099.67
2024-04-25T20:55:36.973Z,100099.17
2024-04-25T20:58:06.928Z,100095.66
2024-04-25T21:00:36.491Z,100093.23
2024-04-25T21:03:06.810Z,100098.46
2024-04-25T21:05:36.524Z,100098.50
2024-04-25T21:08:07.200Z,100098.55
2024-04-25T21:10:36.791Z,100098.60
2024-04-25T21:13:06.689Z,100103.07
2024-04-25T21:15:36.268Z,100103.63
2024-04-25T21:18:06.242Z,100104.39
2024-04-25T21:20:35.872Z,100108.14
2024-04-25T21:23:05.852Z,100101.09
2024-04-25T21:25:44.862Z,100109.33
2024-04-25T21:28:18.125Z,100105.63
2024-04-25T21:30:47.714Z,100108.30
2024-04-25T21:33:17.406Z,100104.95
2024-04-25T21:35:47.313Z,100106.45
2024-04-25T21:38:17.468Z,100107.21
2024-04-25T21:40:47.089Z,100105.42
2024-04-25T21:43:16.941Z,100105.30
2024-04-25T21:45:46.504Z,100103.73
2024-04-25T21:48:20.824Z,100104.46
2024-04-25T21:50:51.466Z,100104.12
2024-04-25T21:53:23.195Z,100105.38
2024-04-25T21:55:52.983Z,100101.33
2024-04-25T21:58:22.548Z,100098.85
2024-04-25T22:00:52.208Z,100093.21
2024-04-25T22:03:22.039Z,100091.27
2024-04-25T22:05:51.660Z,100093.94
2024-04-25T22:08:21.311Z,100092.70
2024-04-25T22:10:50.992Z,100091.89
2024-04-25T22:13:20.563Z,100091.70
2024-04-25T22:15:50.140Z,100089.06
2024-04-25T22:18:19.937Z,100087.52
2024-04-25T22:20:49.729Z,100084.86
2024-04-25T22:23:19.364Z,100082.92
2024-04-25T22:25:48.910Z,100085.41
2024-04-25T22:28:18.506Z,100081.18
2024-04-25T22:30:48.097Z,100086.71
2024-04-25T22:33:18.213Z,100091.90
2024-04-25T22:35:47.915Z,100097.61
2024-04-25T22:38:17.576Z,100101.18
2024-04-25T22:40:47.162Z,100099.08
2024-04-25T22:43:16.800Z,100098.73
2024-04-25T22:45:46.393Z,100099.83
2024-04-25T22:48:16.162Z,100102.98
2024-04-25T22:50:45.933Z,100115.13
2024-04-25T22:53:15.636Z,100099.33
2024-04-25T22:55:47.905Z,100098.27
2024-04-25T22:58:17.472Z,100097.08
2024-04-25T23:00:47.273Z,100094.08
2024-04-25T23:03:16.904Z,100093.60
2024-04-25T23:05:47.180Z,100092.20
2024-04-25T23:08:16.717Z,100091.70
2024-04-25T23:10:46.462Z,100093.13
2024-04-25T23:13:16.061Z,100098.16
2024-04-25T23:15:45.752Z,100104.38
2024-04-25T23:18:15.473Z,100099.78
2024-04-25T23:20:45.226Z,100101.08
2024-04-25T23:23:14.856Z,100099.87
2024-04-25T23:25:44.570Z,100099.58
2024-04-25T23:28:14.105Z,100099.97
2024-04-25T23:30:43.841Z,100100.89
2024-04-25T23:33:13.469Z,100098.79
2024-04-25T23:35:43.252Z,100097.73
2024-04-25T23:38:12.880Z,100095.79
2024-04-25T23:40:42.583Z,100096.52
2024-04-25T23:43:12.176Z,100093.88
2024-04-25T23:45:41.743Z,100096.02
2024-04-25T23:48:11.623Z,100096.04
2024-04-25T23:50:41.281Z,100099.27
2024-04-25T23:53:10.865Z,100104.08
2024-04-25T23:55:40.670Z,100101.58
2024-04-25T23:58:10.216Z,100105.18
